createdAt,value
2023-02-12T00:00:45.108Z,100716.03
2023-02-12T00:02:50.732Z,100726.00
2023-02-12T00:04:55.824Z,100724.31
2023-02-12T00:07:00.986Z,100731.00
2023-02-12T00:09:06.875Z,100727.66
2023-02-12T00:11:19.001Z,100712.63
2023-02-12T00:13:23.966Z,100716.84
2023-02-12T00:15:29.201Z,100727.66
2023-02-12T00:17:34.135Z,100728.44
2023-02-12T00:19:39.568Z,100733.38
2023-02-12T00:21:44.459Z,100730.03
2023-02-12T00:23:49.712Z,100729.19
2023-02-12T00:25:55.225Z,100725.00
2023-02-12T00:28:03.210Z,100725.88
2023-02-12T00:30:10.552Z,100725.03
2023-02-12T00:32:19.451Z,100734.16
2023-02-12T00:34:24.353Z,100740.00
2023-02-12T00:36:32.188Z,100732.38
2023-02-12T00:38:38.152Z,100733.19
2023-02-12T00:40:43.081Z,100739.13
2023-02-12T00:42:48.422Z,100740.78
2023-02-12T00:44:55.864Z,100740.66
2023-02-12T00:47:02.764Z,100740.66
2023-02-12T00:49:07.686Z,100732.31
2023-02-12T00:51:14.114Z,100728.16
2023-02-12T00:53:19.821Z,100727.31
2023-02-12T00:55:25.011Z,100715.66
2023-02-12T00:57:30.678Z,100723.91
2023-02-12T00:59:36.810Z,100719.84
2023-02-12T01:01:44.795Z,100723.97
2023-02-12T01:03:49.739Z,100722.25
2023-02-12T01:05:55.177Z,100719.69
2023-02-12T01:08:00.361Z,100718.84
2023-02-12T01:10:05.635Z,100723.00
2023-02-12T01:12:13.807Z,100719.59
2023-02-12T01:14:18.723Z,100727.13
2023-02-12T01:16:27.811Z,100725.41
2023-02-12T01:18:37.162Z,100726.25
2023-02-12T01:20:43.116Z,100722.13
2023-02-12T01:22:48.231Z,100718.06
2023-02-12T01:24:53.199Z,100718.84
2023-02-12T01:26:58.097Z,100722.13
2023-02-12T01:29:06.402Z,100718.84
2023-02-12T01:31:13.577Z,100724.69
2023-02-12T01:33:18.694Z,100723.03
2023-02-12T01:35:26.532Z,100718.78
2023-02-12T01:37:31.837Z,100716.31
2023-02-12T01:39:36.885Z,100713.66
2023-02-12T01:41:45.520Z,100711.97
2023-02-12T01:44:15.541Z,100714.44
2023-02-12T01:46:20.483Z,100710.31
2023-02-12T01:48:28.595Z,100713.59
2023-02-12T01:50:36.692Z,100711.97
2023-02-12T01:52:49.280Z,100716.16
2023-02-12T01:54:57.301Z,100718.56
2023-02-12T01:57:03.274Z,100720.16
2023-02-12T01:59:09.106Z,100713.47
2023-02-12T02:01:21.003Z,100715.19
2023-02-12T02:03:26.179Z,100710.09
2023-02-12T02:05:45.138Z,100714.16
2023-02-12T02:07:50.174Z,100708.41
2023-02-12T02:09:55.666Z,100712.78
2023-02-12T02:12:13.404Z,100706.16
2023-02-12T02:14:30.820Z,100704.34
2023-02-12T02:16:39.683Z,100698.44
2023-02-12T02:18:48.893Z,100698.44
2023-02-12T02:21:48.700Z,100705.97
2023-02-12T02:24:28.946Z,100707.63
2023-02-12T02:27:25.857Z,100710.09
2023-02-12T02:30:15.046Z,100704.22
2023-02-12T02:32:26.281Z,100698.25
2023-02-12T02:34:41.243Z,100697.44
2023-02-12T02:37:00.528Z,100694.09
2023-02-12T02:39:11.812Z,100688.19
2023-02-12T02:41:23.838Z,100690.63
2023-02-12T02:43:36.054Z,100689.78
2023-02-12T02:45:49.275Z,100692.47
2023-02-12T02:47:57.988Z,100694.03
2023-02-12T02:50:10.584Z,100696.56
2023-02-12T02:52:21.796Z,100701.63
2023-02-12T02:54:33.546Z,100701.63
2023-02-12T02:56:45.164Z,100704.19
2023-02-12T02:58:55.860Z,100698.44
2023-02-12T03:01:08.142Z,100699.38
2023-02-12T03:03:22.828Z,100700.13
2023-02-12T03:05:34.032Z,100696.75
2023-02-12T03:07:45.069Z,100698.44
2023-02-12T03:09:56.912Z,100686.03
2023-02-12T03:12:07.657Z,100687.69
2023-02-12T03:14:19.018Z,100690.97
2023-02-12T03:16:30.777Z,100691.75
2023-02-12T03:18:42.985Z,100694.44
2023-02-12T03:20:54.020Z,100694.53
2023-02-12T03:23:04.773Z,100690.25
2023-02-12T03:25:17.522Z,100686.88
2023-02-12T03:27:29.924Z,100686.88
2023-02-12T03:29:35.571Z,100692.00
2023-02-12T03:32:02.485Z,100693.84
2023-02-12T03:34:18.185Z,100693.84
2023-02-12T03:36:35.110Z,100693.84
2023-02-12T03:38:45.549Z,100700.50
2023-02-12T03:40:56.508Z,100695.63
2023-02-12T03:43:07.877Z,100700.69
2023-02-12T03:45:25.684Z,100695.66
2023-02-12T03:47:46.716Z,100699.00
2023-02-12T03:50:05.349Z,100698.28
2023-02-12T03:52:10.447Z,100697.25
2023-02-12T03:54:19.341Z,100699.56
2023-02-12T03:56:31.371Z,100697.13
2023-02-12T03:58:40.376Z,100693.72
2023-02-12T04:00:48.882Z,100698.63
2023-02-12T04:02:58.172Z,100698.63
2023-02-12T04:05:08.405Z,100695.22
2023-02-12T04:07:14.455Z,100696.84
2023-02-12T04:09:21.222Z,100701.00
2023-02-12T04:11:36.780Z,100709.31
2023-02-12T04:13:53.232Z,100716.03
2023-02-12T04:16:16.566Z,100721.00
2023-02-12T04:18:34.173Z,100711.81
2023-02-12T04:20:55.835Z,100717.59
2023-02-12T04:23:14.328Z,100721.78
2023-02-12T04:25:43.947Z,100720.16
2023-02-12T04:27:59.215Z,100727.69
2023-02-12T04:30:10.077Z,100725.78
2023-02-12T04:32:21.263Z,100728.34
2023-02-12T04:34:37.257Z,100729.97
2023-02-12T04:36:52.641Z,100726.66
2023-02-12T04:39:03.719Z,100724.13
2023-02-12T04:41:09.524Z,100722.38
2023-02-12T04:43:14.480Z,100738.22
2023-02-12T04:45:24.644Z,100730.75
2023-02-12T04:47:30.037Z,100733.31
2023-02-12T04:49:37.515Z,100738.31
2023-02-12T04:51:42.386Z,100730.84
2023-02-12T04:53:47.691Z,100731.53
2023-02-12T04:55:52.872Z,100732.44
2023-02-12T04:57:57.960Z,100737.44
2023-02-12T05:00:05.043Z,100741.59
2023-02-12T05:02:10.459Z,100731.53
2023-02-12T05:04:17.812Z,100733.97
2023-02-12T05:06:25.275Z,100735.63
2023-02-12T05:08:30.629Z,100741.44
2023-02-12T05:10:35.518Z,100737.22
2023-02-12T05:12:40.400Z,100739.72
2023-02-12T05:14:45.850Z,100733.81
2023-02-12T05:16:50.728Z,100737.03
2023-02-12T05:18:55.606Z,100741.22
2023-02-12T05:21:01.423Z,100743.00
2023-02-12T05:23:09.358Z,100733.03
2023-02-12T05:25:14.388Z,100735.47
2023-02-12T05:27:19.242Z,100740.38
2023-02-12T05:29:24.725Z,100742.94
2023-02-12T05:31:29.882Z,100748.75
2023-02-12T05:33:35.672Z,100752.88
2023-02-12T05:35:40.504Z,100752.78
2023-02-12T05:37:46.038Z,100750.28
2023-02-12T05:39:54.675Z,100760.22
2023-02-12T05:41:59.549Z,100749.50
2023-02-12T05:44:05.629Z,100752.78
2023-02-12T05:46:11.575Z,100758.56
2023-02-12T05:48:17.281Z,100759.38
2023-02-12T05:50:23.074Z,100755.19
2023-02-12T05:52:37.793Z,100762.56
2023-02-12T05:54:42.666Z,100756.72
2023-02-12T05:56:51.222Z,100762.56
2023-02-12T05:59:00.016Z,100759.16
2023-02-12T06:01:04.923Z,100753.25
2023-02-12T06:03:09.751Z,100754.09
2023-02-12T06:05:15.139Z,100764.13
2023-02-12T06:07:20.016Z,100765.00
2023-02-12T06:09:26.217Z,100764.13
2023-02-12T06:11:31.571Z,100758.38
2023-02-12T06:13:39.148Z,100755.88
2023-02-12T06:15:43.988Z,100762.44
2023-02-12T06:17:49.421Z,100758.38
2023-02-12T06:19:54.243Z,100762.34
2023-02-12T06:21:59.081Z,100760.75
2023-02-12T06:24:04.776Z,100758.16
2023-02-12T06:26:09.840Z,100758.16
2023-02-12T06:28:14.685Z,100760.59
2023-02-12T06:30:22.945Z,100753.97
2023-02-12T06:32:27.926Z,100766.47
2023-02-12T06:34:32.783Z,100764.06
2023-02-12T06:36:40.288Z,100765.72
2023-02-12T06:38:45.428Z,100763.13
2023-02-12T06:40:50.297Z,100764.84
2023-02-12T06:42:55.123Z,100768.19
2023-02-12T06:44:59.945Z,100771.47
2023-02-12T06:47:07.569Z,100769.81
2023-02-12T06:49:16.662Z,100777.28
2023-02-12T06:51:23.528Z,100781.53
2023-02-12T06:53:28.540Z,100778.25
2023-02-12T06:55:33.424Z,100778.31
2023-02-12T06:57:38.472Z,100779.19
2023-02-12T06:59:43.340Z,100780.88
2023-02-12T07:01:48.215Z,100786.78
2023-02-12T07:03:58.255Z,100783.44
2023-02-12T07:06:03.101Z,100794.34
2023-02-12T07:08:07.939Z,100797.63
2023-02-12T07:10:13.725Z,100797.63
2023-02-12T07:12:18.696Z,100800.09
2023-02-12T07:14:23.528Z,100802.59
2023-02-12T07:16:28.917Z,100807.63
2023-02-12T07:18:33.829Z,100807.69
2023-02-12T07:20:41.289Z,100802.72
2023-02-12T07:22:46.189Z,100801.03
2023-02-12T07:24:51.938Z,100806.06
2023-02-12T07:26:56.851Z,100810.28
2023-02-12T07:29:01.955Z,100815.31
2023-02-12T07:31:11.703Z,100816.34
2023-02-12T07:33:16.610Z,100814.88
2023-02-12T07:35:21.666Z,100825.03
2023-02-12T07:37:29.163Z,100826.88
2023-02-12T07:39:33.994Z,100824.47
2023-02-12T07:41:40.196Z,100824.53
2023-02-12T07:43:47.737Z,100829.72
2023-02-12T07:45:53.283Z,100824.88
2023-02-12T07:47:58.961Z,100828.25
2023-02-12T07:50:03.860Z,100832.59
2023-02-12T07:52:09.084Z,100834.34
2023-02-12T07:54:19.094Z,100835.94
2023-02-12T07:56:29.579Z,100839.28
2023-02-12T07:58:34.498Z,100841.91
2023-02-12T08:00:40.377Z,100842.78
2023-02-12T08:02:45.380Z,100844.56
2023-02-12T08:04:50.573Z,100853.03
2023-02-12T08:06:58.631Z,100841.53
2023-02-12T08:09:07.089Z,100845.88
2023-02-12T08:11:18.522Z,100847.66
2023-02-12T08:13:23.346Z,100854.34
2023-02-12T08:15:28.785Z,100847.00
2023-02-12T08:17:34.700Z,100844.66
2023-02-12T08:19:39.837Z,100849.00
2023-02-12T08:21:45.068Z,100858.38
2023-02-12T08:23:52.129Z,100847.63
2023-02-12T08:25:57.340Z,100847.81
2023-02-12T08:28:04.985Z,100852.94
2023-02-12T08:30:15.387Z,100851.38
2023-02-12T08:32:20.394Z,100856.50
2023-02-12T08:34:27.989Z,100858.25
2023-02-12T08:36:39.400Z,100867.72
2023-02-12T08:38:46.828Z,100865.34
2023-02-12T08:40:51.684Z,100860.34
2023-02-12T08:42:56.534Z,100868.66
2023-02-12T08:45:04.007Z,100862.31
2023-02-12T08:47:10.181Z,100862.50
2023-02-12T08:49:18.412Z,100866.88
2023-02-12T08:51:26.245Z,100861.22
2023-02-12T08:53:31.077Z,100863.88
2023-02-12T08:55:36.950Z,100863.28
2023-02-12T08:57:41.996Z,100870.22
2023-02-12T08:59:47.310Z,100869.63
2023-02-12T09:01:56.691Z,100868.84
2023-02-12T09:04:02.420Z,100860.88
2023-02-12T09:06:10.426Z,100867.88
2023-02-12T09:08:15.279Z,100859.50
2023-02-12T09:10:20.708Z,100870.63
2023-02-12T09:12:26.175Z,100864.03
2023-02-12T09:14:31.146Z,100871.63
2023-02-12T09:16:40.427Z,100865.84
2023-02-12T09:18:48.451Z,100866.84
2023-02-12T09:20:53.524Z,100872.88
2023-02-12T09:22:58.372Z,100872.47
2023-02-12T09:25:03.423Z,100867.66
2023-02-12T09:27:08.254Z,100873.66
2023-02-12T09:29:13.078Z,100871.63
2023-02-12T09:31:21.061Z,100874.19
2023-02-12T09:33:26.055Z,100874.25
2023-02-12T09:35:33.812Z,100874.94
2023-02-12T09:37:39.161Z,100875.53
2023-02-12T09:39:45.014Z,100874.78
2023-02-12T09:42:24.021Z,100874.69
2023-02-12T09:44:39.141Z,100871.34
2023-02-12T09:46:52.465Z,100870.56
2023-02-12T09:49:03.388Z,100872.69
2023-02-12T09:51:12.616Z,100868.97
2023-02-12T09:53:22.614Z,100878.56
2023-02-12T09:55:32.620Z,100880.44
2023-02-12T09:57:40.217Z,100880.50
2023-02-12T09:59:51.947Z,100885.84
2023-02-12T10:01:56.849Z,100882.47
2023-02-12T10:04:02.961Z,100880.84
2023-02-12T10:06:16.823Z,100882.94
2023-02-12T10:08:46.413Z,100887.09
2023-02-12T10:10:56.607Z,100888.06
2023-02-12T10:13:07.494Z,100886.25
2023-02-12T10:15:29.796Z,100889.81
2023-02-12T10:17:45.286Z,100888.91
2023-02-12T10:20:40.343Z,100886.41
2023-02-12T10:23:03.153Z,100889.06
2023-02-12T10:25:21.023Z,100887.53
2023-02-12T10:27:39.734Z,100885.00
2023-02-12T10:29:47.706Z,100890.16
2023-02-12T10:34:26.501Z,100890.34
2023-02-12T10:36:44.294Z,100890.34
2023-02-12T10:38:58.189Z,100884.72
2023-02-12T10:41:03.419Z,100889.59
2023-02-12T10:43:10.330Z,100886.16
2023-02-12T10:45:18.050Z,100888.47
2023-02-12T10:47:27.444Z,100892.03
2023-02-12T10:49:35.367Z,100890.16
2023-02-12T10:51:57.398Z,100885.53
2023-02-12T10:54:44.106Z,100878.16
2023-02-12T10:56:49.079Z,100869.19
2023-02-12T10:59:00.533Z,100872.25
2023-02-12T11:01:06.954Z,100867.09
2023-02-12T11:03:25.166Z,100862.09
2023-02-12T11:05:35.630Z,100859.69
2023-02-12T11:07:52.650Z,100858.97
2023-02-12T11:10:00.602Z,100855.53
2023-02-12T11:12:06.680Z,100853.38
2023-02-12T11:14:22.864Z,100847.34
2023-02-12T11:16:33.662Z,100850.75
2023-02-12T11:18:39.916Z,100851.47
2023-02-12T11:20:54.033Z,100844.09
2023-02-12T11:23:03.353Z,100847.25
2023-02-12T11:25:19.680Z,100848.81
2023-02-12T11:27:32.890Z,100842.25
2023-02-12T11:29:37.558Z,100844.91
2023-02-12T11:31:43.033Z,100834.09
2023-02-12T11:33:48.253Z,100840.91
2023-02-12T11:36:00.941Z,100831.19
2023-02-12T11:38:07.470Z,100827.88
2023-02-12T11:40:23.838Z,100829.78
2023-02-12T11:42:33.543Z,100824.81
2023-02-12T11:44:42.645Z,100828.78
2023-02-12T11:46:52.227Z,100826.25
2023-02-12T11:49:01.301Z,100824.41
2023-02-12T11:51:10.099Z,100826.19
2023-02-12T11:53:25.589Z,100827.78
2023-02-12T11:55:37.630Z,100823.47
2023-02-12T11:57:48.681Z,100821.09
2023-02-12T11:59:54.921Z,100820.94
2023-02-12T12:02:05.251Z,100824.09
2023-02-12T12:04:15.593Z,100824.75
2023-02-12T12:06:35.316Z,100813.66
2023-02-12T12:08:46.889Z,100812.63
2023-02-12T12:11:03.793Z,100813.56
2023-02-12T12:13:15.800Z,100817.88
2023-02-12T12:15:38.953Z,100812.03
2023-02-12T12:18:02.555Z,100813.69
2023-02-12T12:20:12.854Z,100813.59
2023-02-12T12:22:41.196Z,100817.06
2023-02-12T12:24:54.579Z,100815.38
2023-02-12T12:27:14.330Z,100816.19
2023-02-12T12:29:26.926Z,100817.22
2023-02-12T12:31:38.572Z,100813.06
2023-02-12T12:33:49.652Z,100810.53
2023-02-12T12:36:15.383Z,100810.16
2023-02-12T12:38:33.748Z,100804.34
2023-02-12T12:40:55.510Z,100806.81
2023-02-12T12:43:15.631Z,100800.09
2023-02-12T12:45:50.929Z,100798.13
2023-02-12T12:48:12.861Z,100805.66
2023-02-12T12:50:38.457Z,100804.63
2023-02-12T12:53:06.867Z,100803.03
2023-02-12T12:55:39.081Z,100791.34
2023-02-12T12:57:59.107Z,100803.88
2023-02-12T13:00:36.365Z,100796.38
2023-02-12T13:03:29.261Z,100800.75
2023-02-12T13:06:01.595Z,100791.22
2023-02-12T13:08:16.904Z,100790.50
2023-02-12T13:10:35.543Z,100782.72
2023-02-12T13:13:03.907Z,100783.72
2023-02-12T13:15:21.450Z,100778.00
2023-02-12T13:17:34.523Z,100787.28
2023-02-12T13:19:55.006Z,100781.44
2023-02-12T13:22:11.131Z,100777.28
2023-02-12T13:24:29.513Z,100777.38
2023-02-12T13:26:52.813Z,100772.34
2023-02-12T13:29:04.996Z,100779.19
2023-02-12T13:31:33.700Z,100780.75
2023-02-12T13:33:47.710Z,100772.34
2023-02-12T13:35:59.490Z,100781.63
2023-02-12T13:38:09.433Z,100784.00
2023-02-12T13:40:20.636Z,100785.78
2023-02-12T13:42:50.830Z,100786.50
2023-02-12T13:45:10.386Z,100784.88
2023-02-12T13:47:24.025Z,100784.84
2023-02-12T13:49:44.783Z,100799.66
2023-02-12T13:51:53.224Z,100791.22
2023-02-12T13:54:26.185Z,100784.41
2023-02-12T13:56:43.074Z,100792.50
2023-02-12T13:58:55.892Z,100794.94
2023-02-12T14:01:03.795Z,100787.50
2023-02-12T14:03:12.746Z,100787.50
2023-02-12T14:05:33.627Z,100799.03
2023-02-12T14:07:49.251Z,100793.19
2023-02-12T14:10:08.031Z,100792.50
2023-02-12T14:12:18.040Z,100790.72
2023-02-12T14:14:30.703Z,100791.38
2023-02-12T14:16:43.489Z,100793.81
2023-02-12T14:18:48.397Z,100793.94
2023-02-12T14:21:42.391Z,100790.47
2023-02-12T14:23:47.895Z,100788.72
2023-02-12T14:26:05.363Z,100782.09
2023-02-12T14:28:29.088Z,100786.81
2023-02-12T14:30:40.327Z,100783.53
2023-02-12T14:33:11.612Z,100790.28
2023-02-12T14:35:35.806Z,100787.19
2023-02-12T14:37:43.273Z,100782.03
2023-02-12T14:39:48.329Z,100782.66
2023-02-12T14:41:57.276Z,100784.22
2023-02-12T14:44:47.394Z,100778.31
2023-02-12T14:46:54.949Z,100778.25
2023-02-12T14:49:05.663Z,100780.00
2023-02-12T14:51:22.752Z,100788.34
2023-02-12T14:53:35.648Z,100778.19
2023-02-12T14:55:44.649Z,100779.09
2023-02-12T14:57:50.527Z,100786.44
2023-02-12T15:00:00.697Z,100776.34
2023-02-12T15:02:06.783Z,100783.06
2023-02-12T15:04:20.260Z,100779.59
2023-02-12T15:06:32.739Z,100777.28
2023-02-12T15:08:49.602Z,100776.41
2023-02-12T15:11:02.759Z,100786.34
2023-02-12T15:13:26.215Z,100784.69
2023-02-12T15:15:37.461Z,100786.97
2023-02-12T15:17:48.436Z,100789.28
2023-02-12T15:20:02.148Z,100785.81
2023-02-12T15:22:15.359Z,100790.03
2023-02-12T15:24:27.849Z,100784.91
2023-02-12T15:26:36.808Z,100785.72
2023-02-12T15:28:43.551Z,100779.91
2023-02-12T15:30:49.402Z,100790.75
2023-02-12T15:32:54.791Z,100782.41
2023-02-12T15:35:00.114Z,100780.72
2023-02-12T15:37:08.655Z,100779.06
2023-02-12T15:39:23.035Z,100779.75
2023-02-12T15:41:41.885Z,100781.31
2023-02-12T15:43:47.327Z,100777.81
2023-02-12T15:45:55.553Z,100783.44
2023-02-12T15:48:13.063Z,100782.59
2023-02-12T15:50:19.720Z,100776.78
2023-02-12T15:52:34.614Z,100790.25
2023-02-12T15:54:40.441Z,100776.88
2023-02-12T15:56:48.465Z,100780.22
2023-02-12T15:58:55.579Z,100768.50
2023-02-12T16:01:06.166Z,100770.88
2023-02-12T16:03:25.840Z,100763.56
2023-02-12T16:05:31.975Z,100768.59
2023-02-12T16:07:39.929Z,100762.59
2023-02-12T16:09:45.897Z,100764.97
2023-02-12T16:11:53.537Z,100766.59
2023-02-12T16:14:03.090Z,100765.75
2023-02-12T16:16:18.617Z,100763.16
2023-02-12T16:18:28.743Z,100765.59
2023-02-12T16:20:34.981Z,100756.28
2023-02-12T16:22:42.914Z,100759.69
2023-02-12T16:24:53.050Z,100764.63
2023-02-12T16:27:03.718Z,100757.94
2023-02-12T16:29:08.718Z,100761.13
2023-02-12T16:31:17.286Z,100757.94
2023-02-12T16:33:37.114Z,100770.38
2023-02-12T16:35:43.022Z,100765.44
2023-02-12T16:37:51.291Z,100766.03
2023-02-12T16:40:26.692Z,100769.25
2023-02-12T16:42:34.780Z,100763.78
2023-02-12T16:44:39.643Z,100769.75
2023-02-12T16:46:50.705Z,100768.00
2023-02-12T16:48:59.464Z,100766.25
2023-02-12T16:51:06.294Z,100770.41
2023-02-12T16:53:43.111Z,100772.34
2023-02-12T16:55:48.056Z,100777.06
2023-02-12T16:57:55.555Z,100777.72
2023-02-12T17:00:00.422Z,100780.13
2023-02-12T17:02:13.056Z,100774.22
2023-02-12T17:04:18.979Z,100778.47
2023-02-12T17:06:27.638Z,100779.34
2023-02-12T17:08:32.594Z,100783.44
2023-02-12T17:10:37.474Z,100778.56
2023-02-12T17:12:48.710Z,100777.66
2023-02-12T17:14:57.179Z,100775.81
2023-02-12T17:17:02.136Z,100780.91
2023-02-12T17:19:07.044Z,100785.97
2023-02-12T17:21:22.899Z,100785.78
2023-02-12T17:23:28.950Z,100782.53
2023-02-12T17:25:36.206Z,100789.38
2023-02-12T17:27:41.399Z,100787.63
2023-02-12T17:29:46.550Z,100790.03
2023-02-12T17:31:55.995Z,100794.88
2023-02-12T17:34:01.701Z,100789.81
2023-02-12T17:36:07.634Z,100795.63
2023-02-12T17:38:12.686Z,100800.56
2023-02-12T17:40:18.102Z,100800.63
2023-02-12T17:42:23.062Z,100803.09
2023-02-12T17:44:28.094Z,100806.63
2023-02-12T17:46:33.908Z,100801.59
2023-02-12T17:48:41.369Z,100807.56
2023-02-12T17:50:46.950Z,100798.50
2023-02-12T17:52:52.033Z,100804.13
2023-02-12T17:54:56.911Z,100799.72
2023-02-12T17:57:01.866Z,100798.81
2023-02-12T17:59:07.248Z,100797.13
2023-02-12T18:01:14.961Z,100802.13
2023-02-12T18:03:20.105Z,100796.22
2023-02-12T18:05:27.800Z,100800.38
2023-02-12T18:07:36.363Z,100800.28
2023-02-12T18:09:41.338Z,100794.41
2023-02-12T18:11:46.472Z,100796.84
2023-02-12T18:13:55.722Z,100796.94
2023-02-12T18:16:01.359Z,100796.84
2023-02-12T18:18:06.800Z,100795.94
2023-02-12T18:20:14.134Z,100798.38
2023-02-12T18:22:22.179Z,100797.59
2023-02-12T18:24:27.099Z,100791.78
2023-02-12T18:26:31.985Z,100791.84
2023-02-12T18:28:37.432Z,100792.81
2023-02-12T18:30:43.816Z,100793.66
2023-02-12T18:32:48.863Z,100806.09
2023-02-12T18:34:54.080Z,100796.84
2023-02-12T18:36:58.955Z,100804.44
2023-02-12T18:39:07.125Z,100796.94
2023-02-12T18:41:15.205Z,100803.53
2023-02-12T18:43:20.051Z,100803.47
2023-02-12T18:45:24.995Z,100803.41
2023-02-12T18:47:29.895Z,100805.03
2023-02-12T18:49:34.787Z,100802.50
2023-02-12T18:51:41.078Z,100805.78
2023-02-12T18:53:46.612Z,100803.28
2023-02-12T18:55:54.261Z,100807.34
2023-02-12T18:57:59.151Z,100813.13
2023-02-12T19:02:41.558Z,100798.94
2023-02-12T19:04:46.672Z,100808.94
2023-02-12T19:06:53.717Z,100804.75
2023-02-12T19:08:59.145Z,100804.75
2023-02-12T19:11:08.880Z,100796.38
2023-02-12T19:13:14.104Z,100803.06
2023-02-12T19:15:20.131Z,100795.56
2023-02-12T19:17:25.057Z,100803.06
2023-02-12T19:19:32.510Z,100799.69
2023-02-12T19:21:39.513Z,100796.38
2023-02-12T19:23:44.936Z,100799.69
2023-02-12T19:25:49.874Z,100803.88
2023-02-12T19:27:58.623Z,100797.13
2023-02-12T19:30:04.334Z,100799.72
2023-02-12T19:32:10.722Z,100799.72
2023-02-12T19:34:20.489Z,100804.63
2023-02-12T19:36:26.277Z,100802.06
2023-02-12T19:38:31.840Z,100800.38
2023-02-12T19:40:36.787Z,100802.94
2023-02-12T19:42:41.773Z,100809.63
2023-02-12T19:44:49.356Z,100802.97
2023-02-12T19:46:56.545Z,100807.25
2023-02-12T19:49:04.942Z,100809.75
2023-02-12T19:51:11.564Z,100809.63
2023-02-12T19:53:16.477Z,100809.53
2023-02-12T19:55:21.402Z,100812.88
2023-02-12T19:57:26.328Z,100807.84
2023-02-12T19:59:32.158Z,100806.34
2023-02-12T20:01:39.882Z,100802.94
2023-02-12T20:03:45.887Z,100806.22
2023-02-12T20:05:53.319Z,100809.53
2023-02-12T20:07:58.278Z,100814.47
2023-02-12T20:10:03.283Z,100809.47
2023-02-12T20:12:09.011Z,100803.66
2023-02-12T20:14:16.090Z,100815.31
2023-02-12T20:16:24.185Z,100811.06
2023-02-12T20:18:32.005Z,100814.31
2023-02-12T20:20:40.982Z,100809.31
2023-02-12T20:22:45.878Z,100816.72
2023-02-12T20:24:50.818Z,100809.16
2023-02-12T20:26:56.762Z,100816.66
2023-02-12T20:29:05.200Z,100821.53
2023-02-12T20:31:12.457Z,100816.41
2023-02-12T20:33:17.670Z,100820.63
2023-02-12T20:35:25.176Z,100820.72
2023-02-12T20:37:30.178Z,100825.63
2023-02-12T20:39:38.172Z,100822.25
2023-02-12T20:41:44.033Z,100822.25
2023-02-12T20:43:49.029Z,100828.91
2023-02-12T20:45:53.952Z,100819.00
2023-02-12T20:47:58.869Z,100829.03
2023-02-12T20:50:04.126Z,100830.69
2023-02-12T20:52:11.881Z,100832.41
2023-02-12T20:54:16.816Z,100821.41
2023-02-12T20:56:25.904Z,100836.50
2023-02-12T20:58:31.213Z,100830.56
2023-02-12T21:00:36.133Z,100831.31
2023-02-12T21:02:41.101Z,100838.78
2023-02-12T21:04:46.094Z,100832.00
2023-02-12T21:06:52.020Z,100832.00
2023-02-12T21:08:59.977Z,100823.69
2023-02-12T21:11:09.856Z,100834.53
2023-02-12T21:13:14.794Z,100827.00
2023-02-12T21:15:19.982Z,100833.69
2023-02-12T21:17:24.929Z,100828.69
2023-02-12T21:19:30.066Z,100827.00
2023-02-12T21:21:37.831Z,100821.19
2023-02-12T21:23:43.416Z,100820.34
2023-02-12T21:25:51.480Z,100823.63
2023-02-12T21:27:56.386Z,100818.63
2023-02-12T21:30:01.286Z,100827.78
2023-02-12T21:32:06.415Z,100830.22
2023-02-12T21:34:17.559Z,100823.56
2023-02-12T21:36:24.585Z,100824.38
2023-02-12T21:38:29.503Z,100836.91
2023-02-12T21:42:44.552Z,100833.56
2023-02-12T21:44:49.789Z,100839.34
2023-02-12T21:46:55.500Z,100833.56
2023-02-12T21:49:01.858Z,100847.66
2023-02-12T21:51:07.904Z,100835.91
2023-02-12T21:53:12.846Z,100841.69
2023-02-12T21:55:18.064Z,100845.09
2023-02-12T21:57:22.969Z,100846.69
2023-02-12T21:59:32.523Z,100838.34
2023-02-12T22:01:40.104Z,100838.28
2023-02-12T22:03:45.929Z,100835.84
2023-02-12T22:05:50.825Z,100833.41
2023-02-12T22:07:55.744Z,100838.41
2023-02-12T22:10:01.181Z,100835.91
2023-02-12T22:12:06.957Z,100840.22
2023-02-12T22:14:16.013Z,100836.00
2023-02-12T22:16:27.025Z,100845.91
2023-02-12T22:18:31.963Z,100845.03
2023-02-12T22:20:37.108Z,100842.59
2023-02-12T22:22:42.476Z,100836.00
2023-02-12T22:24:47.614Z,100845.16
2023-02-12T22:26:53.068Z,100837.53
2023-02-12T22:29:00.086Z,100838.28
2023-02-12T22:31:09.769Z,100836.53
2023-02-12T22:33:17.271Z,100846.50
2023-02-12T22:35:22.694Z,100843.06
2023-02-12T22:37:28.028Z,100841.38
2023-02-12T22:39:33.281Z,100832.13
2023-02-12T22:41:41.965Z,100830.44
2023-02-12T22:43:47.493Z,100831.22
2023-02-12T22:45:52.458Z,100833.72
2023-02-12T22:47:57.418Z,100837.91
2023-02-12T22:50:05.279Z,100832.88
2023-02-12T22:52:10.266Z,100837.88
2023-02-12T22:54:17.700Z,100839.44
2023-02-12T22:56:23.346Z,100837.75
2023-02-12T22:58:28.294Z,100841.03
2023-02-12T23:00:33.720Z,100842.69
2023-02-12T23:02:39.212Z,100840.19
2023-02-12T23:04:44.195Z,100835.06
2023-02-12T23:06:52.110Z,100830.88
2023-02-12T23:09:00.852Z,100841.72
2023-02-12T23:11:07.969Z,100837.56
2023-02-12T23:13:24.637Z,100835.88
2023-02-12T23:15:35.073Z,100839.19
2023-02-12T23:17:40.092Z,100835.84
2023-02-12T23:19:45.301Z,100830.81
2023-02-12T23:21:52.819Z,100832.41
2023-02-12T23:23:59.347Z,100835.84
2023-02-12T23:26:04.956Z,100829.22
2023-02-12T23:28:10.409Z,100834.22
2023-02-12T23:30:17.769Z,100833.34
2023-02-12T23:32:23.138Z,100836.59
2023-02-12T23:34:28.845Z,100829.22
2023-02-12T23:36:33.850Z,100835.88
2023-02-12T23:38:41.444Z,100830.88
2023-02-12T23:40:47.176Z,100825.88
2023-02-12T23:42:52.843Z,100840.97
2023-02-12T23:44:58.107Z,100824.34
2023-02-12T23:47:03.053Z,100829.41
2023-02-12T23:49:08.451Z,100827.75
2023-02-12T23:51:14.193Z,100826.97
2023-02-12T23:53:19.423Z,100818.63
2023-02-12T23:55:27.012Z,100821.13
2023-02-12T23:57:32.078Z,100821.13
2023-02-12T23:59:37.936Z,100818.69
